Roberts, Montana
Current Conditions -  °F | °C
As of 8:55 PM on Saturday 20 Dec 2014 (Local Time) from KPOY Reporting Station
Clear Clear  
Wind Chill: 16°   Ceiling: Unl
Heat Index: 27°   Visibility: 10mi
Dew Point: 19°   Wind: 13mph
Humidity: 74%   Direction: 120°ESE
Pressure: 29.74"   Gusts: NA
Location:  45.36°N, 109.19°W
Report Text: KPOY 210355Z AUTO 12011KT 10SM CLR M03/M07 A2974 RMK AO2
Loading
Personal Weather Stations






























Interactive Weather Map New forecast layout! Learn more

10-Day Weather Forecast

Advertisements
Track Severe Weather on mobile